Time;durP1;ratioP1;P1;durP2;ratioP2;P2;SDS_P1;SDS_P2;PMS_P1;PMS_P2;Temp;Humidity;BMP_temperature;BMP_pressure;BME280_temperature;BME280_humidity;BME280_pressure;Samples;Min_cycle;Max_cycle;Signal;HPM_P1;HPM_P2
2024/04/02 00:01:55;;;;;;;0.30;0.10;;;;;;;8.68;100.00;99740.88;4924553;29;20032;-69
2024/04/02 00:04:20;;;;;;;1.15;0.10;;;;;;;8.70;100.00;99745.94;4922739;29;20043;-69
2024/04/02 00:06:47;;;;;;;0.55;0.10;;;;;;;8.70;100.00;99744.16;4926194;29;20526;-69
2024/04/02 00:09:12;;;;;;;0.52;0.10;;;;;;;8.73;100.00;99743.84;4929761;29;20043;-69
2024/04/02 00:11:37;;;;;;;0.70;0.10;;;;;;;8.72;100.00;99749.19;4927084;29;20040;-69
2024/04/02 00:14:03;;;;;;;0.30;0.22;;;;;;;8.69;100.00;99744.31;4923723;29;20053;-69
2024/04/02 00:16:28;;;;;;;1.13;0.05;;;;;;;8.64;100.00;99747.34;4922463;29;20059;-69
2024/04/02 00:18:54;;;;;;;0.45;0.10;;;;;;;8.62;100.00;99765.66;4926426;29;20488;-69
2024/04/02 00:21:20;;;;;;;0.38;0.00;;;;;;;8.59;100.00;99765.97;4923122;29;20035;-67
2024/04/02 00:23:46;;;;;;;1.23;0.20;;;;;;;8.61;100.00;99769.22;4922883;29;20088;-68
2024/04/02 00:26:12;;;;;;;0.40;0.10;;;;;;;8.60;100.00;99764.19;4922564;29;20032;-68
2024/04/02 00:28:38;;;;;;;1.63;0.10;;;;;;;8.60;100.00;99766.78;4922491;29;20043;-68
2024/04/02 00:31:06;;;;;;;1.90;0.10;;;;;;;8.63;100.00;99772.50;4924466;29;20036;-69
2024/04/02 00:33:32;;;;;;;1.30;0.10;;;;;;;8.64;100.00;99778.50;4923240;29;20085;-68
2024/04/02 00:36:05;;;;;;;4.65;0.20;;;;;;;8.62;100.00;99780.44;4923931;29;20035;-68
2024/04/02 00:38:31;;;;;;;1.55;0.25;;;;;;;8.60;100.00;99784.97;4923444;29;20558;-68
2024/04/02 00:40:57;;;;;;;3.20;0.10;;;;;;;8.65;100.00;99787.94;4925427;29;20038;-68
2024/04/02 00:43:23;;;;;;;1.10;0.10;;;;;;;8.68;100.00;99798.03;4923065;29;20027;-68
2024/04/02 00:45:49;;;;;;;0.17;0.08;;;;;;;8.70;100.00;99803.06;4930894;29;20106;-68
2024/04/02 00:48:16;;;;;;;2.67;0.10;;;;;;;8.68;100.00;99800.63;4927131;29;20520;-68
2024/04/02 00:50:42;;;;;;;0.70;0.10;;;;;;;8.72;100.00;99816.72;4928671;29;20512;-68
2024/04/02 00:53:08;;;;;;;0.30;0.00;;;;;;;8.75;100.00;99814.66;4928415;29;20056;-68
2024/04/02 00:55:37;;;;;;;1.05;0.10;;;;;;;8.74;100.00;99815.63;4929863;29;20039;-68
2024/04/02 00:58:07;;;;;;;0.40;0.00;;;;;;;8.67;100.00;99822.34;4931558;29;20031;-69
2024/04/02 01:00:35;;;;;;;1.00;0.00;;;;;;;8.67;100.00;99818.94;4930707;29;20115;-68
2024/04/02 01:03:05;;;;;;;0.35;0.10;;;;;;;8.65;100.00;99814.72;4930426;29;20043;-68
2024/04/02 01:05:32;;;;;;;0.60;0.10;;;;;;;8.74;100.00;99823.41;4929292;29;20040;-68
2024/04/02 01:08:00;;;;;;;0.32;0.10;;;;;;;8.73;100.00;99824.38;4928777;29;20054;-68
2024/04/02 01:10:26;;;;;;;0.50;0.10;;;;;;;8.76;100.00;99837.06;4929935;29;20044;-68
2024/04/02 01:12:52;;;;;;;0.55;0.10;;;;;;;8.71;100.00;99856.66;4930136;29;20128;-68
2024/04/02 01:15:21;;;;;;;0.52;0.10;;;;;;;8.61;100.00;99856.69;4928920;29;20043;-68
2024/04/02 01:17:47;;;;;;;2.00;0.10;;;;;;;8.60;100.00;99860.25;4933265;29;20431;-69
2024/04/02 01:20:13;;;;;;;1.50;0.00;;;;;;;8.54;100.00;99861.66;4934464;29;20087;-68
2024/04/02 01:22:38;;;;;;;1.02;0.10;;;;;;;8.48;100.00;99869.25;4933404;29;20464;-68
2024/04/02 01:25:07;;;;;;;0.00;0.00;;;;;;;8.46;100.00;99881.53;4934255;29;20063;-68
2024/04/02 01:27:33;;;;;;;0.10;0.00;;;;;;;8.46;100.00;99889.34;4933501;29;20031;-68
2024/04/02 01:29:58;;;;;;;0.75;0.00;;;;;;;8.51;100.00;99885.31;4935080;29;20032;-68
2024/04/02 01:32:23;;;;;;;1.75;0.00;;;;;;;8.54;100.00;99889.41;4932357;29;20047;-68
2024/04/02 01:34:49;;;;;;;0.03;0.00;;;;;;;8.52;100.00;99904.31;4933535;29;20079;-68
2024/04/02 01:37:15;;;;;;;0.13;0.00;;;;;;;8.47;100.00;99916.94;4933175;29;20043;-68
2024/04/02 01:39:40;;;;;;;0.10;0.00;;;;;;;8.45;100.00;99916.25;4932674;29;20031;-68
2024/04/02 01:42:06;;;;;;;0.00;0.00;;;;;;;8.47;100.00;99922.13;4931845;29;20046;-69
2024/04/02 01:44:31;;;;;;;0.98;0.00;;;;;;;8.45;100.00;99924.06;4932855;29;20034;-68
2024/04/02 01:46:57;;;;;;;1.08;0.10;;;;;;;8.43;100.00;99931.97;4935159;29;20070;-69
2024/04/02 01:49:22;;;;;;;0.08;0.00;;;;;;;8.42;100.00;99934.72;4931758;29;20031;-68
2024/04/02 01:51:48;;;;;;;0.52;0.00;;;;;;;8.38;100.00;99943.75;4934021;29;20071;-69
2024/04/02 01:54:13;;;;;;;0.80;0.00;;;;;;;8.36;100.00;99943.06;4932983;29;20082;-68
2024/04/02 01:56:39;;;;;;;0.45;0.00;;;;;;;8.37;100.00;99947.31;4928777;29;20082;-68
2024/04/02 01:59:05;;;;;;;2.33;0.05;;;;;;;8.36;100.00;99956.88;4932796;29;20110;-68
2024/04/02 02:01:30;;;;;;;0.98;0.00;;;;;;;8.35;100.00;99965.63;4933552;29;20032;-69
2024/04/02 02:03:55;;;;;;;0.10;0.00;;;;;;;8.31;100.00;99970.25;4933529;29;20036;-68
2024/04/02 02:06:21;;;;;;;3.00;0.10;;;;;;;8.35;100.00;99976.00;4931200;29;20083;-68
2024/04/02 02:08:46;;;;;;;0.25;0.00;;;;;;;8.31;100.00;99974.63;4934222;29;20429;-67
2024/04/02 02:11:12;;;;;;;0.20;0.08;;;;;;;8.34;100.00;99966.56;4933631;29;20024;-68
2024/04/02 02:13:38;;;;;;;0.65;0.00;;;;;;;8.32;100.00;99969.31;4930272;29;20059;-68
2024/04/02 02:16:04;;;;;;;3.20;0.10;;;;;;;8.29;100.00;99977.34;4933241;29;20043;-68
2024/04/02 02:18:31;;;;;;;1.17;0.00;;;;;;;8.25;100.00;99986.38;4932284;29;20110;-68
2024/04/02 02:20:57;;;;;;;0.35;0.10;;;;;;;8.20;100.00;99985.97;4933506;29;20476;-68
2024/04/02 02:23:24;;;;;;;2.47;0.10;;;;;;;8.20;100.00;99985.16;4927781;29;20050;-67
2024/04/02 02:25:49;;;;;;;0.65;0.00;;;;;;;8.17;100.00;99993.22;4925415;29;20035;-69
2024/04/02 02:28:15;;;;;;;0.25;0.00;;;;;;;8.11;100.00;99992.00;4925379;29;20495;-68
2024/04/02 02:30:41;;;;;;;7.05;0.10;;;;;;;8.07;100.00;99984.63;4923699;29;20078;-68
2024/04/02 02:33:06;;;;;;;0.70;0.10;;;;;;;8.07;100.00;99976.84;4924838;29;20031;-68
2024/04/02 02:35:32;;;;;;;3.45;0.10;;;;;;;7.98;100.00;99968.16;4925533;29;20031;-68
2024/04/02 02:37:58;;;;;;;2.20;0.10;;;;;;;7.90;100.00;99971.44;4926389;29;20043;-68
2024/04/02 02:40:23;;;;;;;0.30;0.00;;;;;;;7.88;100.00;99975.97;4925951;29;20027;-68
2024/04/02 02:42:49;;;;;;;0.25;0.03;;;;;;;7.85;100.00;99978.00;4924985;29;20366;-68
2024/04/02 02:45:14;;;;;;;6.15;0.10;;;;;;;7.85;100.00;99973.63;4925980;29;20058;-68
2024/04/02 02:47:40;;;;;;;1.83;0.10;;;;;;;7.78;100.00;99963.94;4925693;29;20082;-68
2024/04/02 02:50:05;;;;;;;0.35;0.10;;;;;;;7.85;100.00;99965.84;4925860;29;20091;-68
2024/04/02 02:52:31;;;;;;;4.30;0.17;;;;;;;7.88;100.00;99969.94;4924714;29;20035;-69
2024/04/02 02:54:56;;;;;;;0.30;0.10;;;;;;;7.89;100.00;99981.97;4932317;29;20043;-68
2024/04/02 02:57:22;;;;;;;3.60;0.10;;;;;;;7.91;100.00;99977.44;4935210;29;20150;-68
2024/04/02 02:59:47;;;;;;;0.52;0.10;;;;;;;7.89;100.00;99989.75;4929330;29;20038;-68
2024/04/02 03:02:14;;;;;;;0.30;0.10;;;;;;;7.85;100.00;99988.38;4932402;29;20403;-67
2024/04/02 03:04:40;;;;;;;0.45;0.10;;;;;;;7.81;100.00;99989.59;4929402;29;20408;-68
2024/04/02 03:07:05;;;;;;;1.30;0.00;;;;;;;7.83;100.00;99990.28;4933486;29;20059;-68
2024/04/02 03:09:32;;;;;;;1.55;0.10;;;;;;;7.86;100.00;99995.22;4933710;29;20091;-68
2024/04/02 03:11:58;;;;;;;0.20;0.10;;;;;;;7.87;100.00;100004.63;4930731;29;20051;-68
2024/04/02 03:14:23;;;;;;;2.30;0.10;;;;;;;7.77;100.00;100006.41;4931394;29;20032;-67
2024/04/02 03:16:48;;;;;;;0.68;0.20;;;;;;;7.79;100.00;100025.25;4931055;29;20395;-69
2024/04/02 03:19:14;;;;;;;0.50;0.13;;;;;;;7.78;100.00;100039.97;4931375;29;20043;-68
2024/04/02 03:21:40;;;;;;;0.30;0.00;;;;;;;7.76;100.00;100051.44;4932095;29;20122;-68
2024/04/02 03:24:05;;;;;;;0.25;0.00;;;;;;;7.69;100.00;100055.53;4929969;29;20096;-68
2024/04/02 03:26:31;;;;;;;0.57;0.10;;;;;;;7.62;100.00;100061.25;4932818;29;20042;-68
2024/04/02 03:28:56;;;;;;;3.92;0.10;;;;;;;7.58;100.00;100066.84;4931188;29;20432;-68
2024/04/02 03:31:21;;;;;;;0.95;0.10;;;;;;;7.49;100.00;100071.09;4931340;29;20043;-68
2024/04/02 03:33:47;;;;;;;0.08;0.00;;;;;;;7.43;100.00;100079.41;4931557;29;20407;-68
2024/04/02 03:36:13;;;;;;;0.30;0.10;;;;;;;7.37;100.00;100086.88;4930098;29;20038;-68
2024/04/02 03:38:39;;;;;;;2.28;0.10;;;;;;;7.36;100.00;100083.47;4931970;29;20027;-68
2024/04/02 03:41:12;;;;;;;1.35;0.10;;;;;;;7.39;100.00;100085.81;4931825;29;20046;-68
2024/04/02 03:43:40;;;;;;;0.30;0.10;;;;;;;7.32;100.00;100079.50;4926977;29;20038;-68
2024/04/02 03:46:06;;;;;;;0.43;0.10;;;;;;;7.28;100.00;100081.53;4928508;29;20044;-68
2024/04/02 03:48:33;;;;;;;1.55;0.13;;;;;;;7.24;100.00;100080.16;4923726;29;20500;-67
2024/04/02 03:50:58;;;;;;;0.82;0.30;;;;;;;7.27;100.00;100082.50;4924382;29;20130;-68
2024/04/02 03:53:24;;;;;;;0.43;0.13;;;;;;;7.29;100.00;100080.59;4922947;29;20118;-68
2024/04/02 03:56:03;;;;;;;1.73;0.20;;;;;;;7.34;100.00;100080.19;4923817;29;20046;-68
2024/04/02 03:58:30;;;;;;;2.95;0.20;;;;;;;7.26;100.00;100087.81;4922260;29;20036;-67
2024/04/02 04:00:56;;;;;;;2.08;0.20;;;;;;;7.22;100.00;100095.03;4923091;29;20042;-67
2024/04/02 04:03:26;;;;;;;7.20;0.20;;;;;;;7.18;100.00;100087.63;4923910;29;20027;-67
2024/04/02 04:05:58;;;;;;;2.92;0.20;;;;;;;7.13;100.00;100094.97;4923290;29;20067;-68
2024/04/02 04:08:26;;;;;;;4.68;0.30;;;;;;;7.08;100.00;100097.19;4921438;29;20052;-68
2024/04/02 04:10:51;;;;;;;17.35;0.60;;;;;;;7.05;100.00;100106.03;4927914;29;20395;-67
2024/04/02 04:13:17;;;;;;;12.73;0.45;;;;;;;6.98;100.00;100105.72;4910938;29;20039;-68
2024/04/02 04:15:49;;;;;;;3.80;0.20;;;;;;;6.93;100.00;100100.09;4932623;29;20135;-68
2024/04/02 04:18:14;;;;;;;4.20;0.40;;;;;;;6.90;100.00;100097.78;4930373;29;20035;-68
2024/04/02 04:20:40;;;;;;;3.17;0.50;;;;;;;6.88;100.00;100104.03;4932016;29;20032;-68
2024/04/02 04:23:05;;;;;;;45.88;1.17;;;;;;;6.83;100.00;100109.59;4927755;29;20043;-68
2024/04/02 04:25:31;;;;;;;36.28;0.95;;;;;;;6.80;100.00;100114.22;4910854;29;20079;-68
2024/04/02 04:27:57;;;;;;;1.95;0.30;;;;;;;6.70;100.00;100110.75;4928718;29;20454;-67
2024/04/02 04:30:22;;;;;;;10.88;0.52;;;;;;;6.62;100.00;100113.97;4929253;29;20059;-68
2024/04/02 04:32:48;;;;;;;6.55;0.30;;;;;;;6.58;100.00;100115.22;4927475;29;20039;-68
2024/04/02 04:35:13;;;;;;;5.60;0.50;;;;;;;6.59;100.00;100122.03;4931697;29;20126;-68
2024/04/02 04:37:39;;;;;;;8.68;0.40;;;;;;;6.58;100.00;100134.16;4931169;29;20039;-68
2024/04/02 04:40:05;;;;;;;26.75;1.17;;;;;;;6.58;100.00;100139.31;4931693;29;20115;-68
2024/04/02 04:42:32;;;;;;;4.88;0.35;;;;;;;6.58;100.00;100141.91;4927193;29;20043;-68
2024/04/02 04:44:58;;;;;;;11.68;0.35;;;;;;;6.58;100.00;100160.03;4928207;29;20090;-68
2024/04/02 04:47:24;;;;;;;20.02;0.77;;;;;;;6.57;100.00;100160.16;4930576;29;20031;-68
2024/04/02 04:49:49;;;;;;;1.40;0.40;;;;;;;6.50;100.00;100159.84;4925538;29;20031;-68
2024/04/02 04:52:16;;;;;;;5.55;0.50;;;;;;;6.45;100.00;100155.97;4925178;29;20395;-67
2024/04/02 04:54:41;;;;;;;51.70;1.45;;;;;;;6.43;100.00;100163.88;4928931;29;20032;-68
2024/04/02 04:57:07;;;;;;;4.45;0.40;;;;;;;6.40;100.00;100166.69;4930691;29;20057;-68
2024/04/02 04:59:33;;;;;;;1.83;0.40;;;;;;;6.35;100.00;100170.59;4927455;29;20027;-68
2024/04/02 05:01:58;;;;;;;14.43;0.80;;;;;;;6.35;100.00;100170.59;4927232;29;20068;-68
2024/04/02 05:04:23;;;;;;;3.92;0.40;;;;;;;6.35;100.00;100179.19;4929449;29;20087;-68
2024/04/02 05:06:52;;;;;;;3.42;0.60;;;;;;;6.32;100.00;100182.84;4930735;29;20220;-68
2024/04/02 05:09:17;;;;;;;29.45;1.73;;;;;;;6.39;100.00;100187.53;4929234;29;20130;-68
2024/04/02 05:11:43;;;;;;;2.30;0.50;;;;;;;6.43;100.00;100194.09;4928538;29;20950;-69
2024/04/02 05:14:08;;;;;;;8.35;0.82;;;;;;;6.45;100.00;100192.22;4922744;29;20102;-68
2024/04/02 05:16:34;;;;;;;1.88;0.60;;;;;;;6.44;100.00;100185.41;4929147;29;20384;-68
2024/04/02 05:19:01;;;;;;;4.13;0.60;;;;;;;6.41;100.00;100191.63;4931514;29;20141;-68
2024/04/02 05:21:26;;;;;;;3.17;1.13;;;;;;;6.45;100.00;100199.97;4928735;29;20490;-68
2024/04/02 05:23:52;;;;;;;2.03;0.60;;;;;;;6.48;100.00;100202.31;4930029;29;20032;-68
2024/04/02 05:26:17;;;;;;;3.20;0.80;;;;;;;6.52;100.00;100206.31;4928819;29;20082;-68
2024/04/02 05:28:43;;;;;;;5.43;0.70;;;;;;;6.57;100.00;100211.94;4922763;29;20407;-67
2024/04/02 05:31:09;;;;;;;5.85;0.90;;;;;;;6.66;100.00;100216.31;4922879;29;20046;-68
2024/04/02 05:33:35;;;;;;;2.85;1.02;;;;;;;6.75;100.00;100230.28;4924228;29;20046;-67
2024/04/02 05:36:01;;;;;;;1.73;0.50;;;;;;;6.80;100.00;100233.31;4929006;29;20126;-68
2024/04/02 05:38:27;;;;;;;2.38;0.30;;;;;;;6.84;100.00;100237.31;4923699;29;20123;-68
2024/04/02 05:40:52;;;;;;;1.52;0.20;;;;;;;6.88;100.00;100242.13;4924326;29;20063;-68
2024/04/02 05:43:18;;;;;;;0.68;0.22;;;;;;;6.97;100.00;100245.72;4922141;29;22114;-67
2024/04/02 05:45:43;;;;;;;1.55;0.40;;;;;;;6.97;100.00;100249.13;4923621;29;20701;-67
2024/04/02 05:48:09;;;;;;;1.50;0.80;;;;;;;7.07;100.00;100256.16;4921875;29;20035;-67
2024/04/02 05:50:34;;;;;;;1.35;0.40;;;;;;;7.11;100.00;100254.91;4924902;29;20479;-67
2024/04/02 05:53:00;;;;;;;2.10;0.20;;;;;;;7.09;100.00;100269.78;4923485;29;20036;-66
2024/04/02 05:55:25;;;;;;;2.95;0.52;;;;;;;7.04;100.00;100266.75;4924307;29;20618;-67
2024/04/02 05:57:50;;;;;;;7.70;0.38;;;;;;;6.98;100.00;100265.50;4923384;29;20036;-67
2024/04/02 06:00:16;;;;;;;0.80;0.20;;;;;;;7.03;100.00;100265.13;4921235;29;20514;-66
2024/04/02 06:02:42;;;;;;;4.03;0.57;;;;;;;7.08;100.00;100268.16;4921472;29;20769;-67
2024/04/02 06:05:08;;;;;;;3.78;0.30;;;;;;;7.08;100.00;100273.34;4923683;29;20658;-67
2024/04/02 06:07:33;;;;;;;2.05;0.30;;;;;;;7.15;100.00;100272.66;4926004;29;20040;-66
2024/04/02 06:09:59;;;;;;;4.13;0.30;;;;;;;7.17;100.00;100281.16;4931102;29;20594;-67
2024/04/02 06:12:24;;;;;;;1.15;0.40;;;;;;;7.23;100.00;100283.22;4929374;29;20043;-66
2024/04/02 06:14:50;;;;;;;3.55;0.30;;;;;;;7.28;100.00;100283.66;4932939;29;20054;-66
2024/04/02 06:17:15;;;;;;;1.35;0.30;;;;;;;7.37;100.00;100282.09;4932876;29;20110;-67
2024/04/02 06:19:40;;;;;;;4.53;0.50;;;;;;;7.43;100.00;100294.53;4933835;29;20043;-66
2024/04/02 06:22:06;;;;;;;1.80;0.30;;;;;;;7.51;100.00;100291.31;4932837;29;20043;-66
2024/04/02 06:24:31;;;;;;;1.30;0.22;;;;;;;7.60;100.00;100299.09;4932280;29;20036;-66
2024/04/02 06:26:57;;;;;;;1.45;0.30;;;;;;;7.65;100.00;100299.53;4933853;29;20032;-68
2024/04/02 06:29:23;;;;;;;2.05;0.30;;;;;;;7.74;100.00;100302.31;4926358;29;20083;-69
2024/04/02 06:31:48;;;;;;;1.13;0.25;;;;;;;7.80;100.00;100309.56;4932857;29;20078;-67
2024/04/02 06:34:13;;;;;;;0.88;0.20;;;;;;;7.95;100.00;100300.50;4920180;29;20213;-67
2024/04/02 06:36:39;;;;;;;2.83;0.20;;;;;;;8.12;100.00;100310.22;4931924;29;20083;-68
2024/04/02 06:39:04;;;;;;;0.60;0.20;;;;;;;8.24;100.00;100306.56;4926008;29;20027;-67
2024/04/02 06:41:30;;;;;;;2.20;0.30;;;;;;;8.36;100.00;100314.28;4928197;29;20035;-67
2024/04/02 06:43:56;;;;;;;2.05;0.20;;;;;;;8.44;100.00;100307.47;4931068;29;20086;-67
2024/04/02 06:46:24;;;;;;;0.85;0.10;;;;;;;8.56;100.00;100308.97;4929538;29;20436;-67
2024/04/02 06:48:49;;;;;;;3.80;0.10;;;;;;;8.65;100.00;100308.16;4933042;29;20126;-68
2024/04/02 06:51:16;;;;;;;1.05;0.15;;;;;;;8.72;100.00;100307.59;4933709;29;20126;-67
2024/04/02 06:53:42;;;;;;;1.85;0.10;;;;;;;8.73;100.00;100311.84;4931706;29;20337;-68
2024/04/02 06:56:08;;;;;;;1.80;0.15;;;;;;;8.84;100.00;100306.53;4924177;29;20059;-68
2024/04/02 06:58:33;;;;;;;1.42;0.38;;;;;;;8.84;100.00;100312.53;4924880;29;20083;-68
2024/04/02 07:01:00;;;;;;;2.10;0.30;;;;;;;8.90;100.00;100309.41;4930632;29;20118;-68
2024/04/02 07:03:26;;;;;;;0.60;0.20;;;;;;;9.04;100.00;100318.53;4933476;29;24528;-67
2024/04/02 07:05:52;;;;;;;2.13;0.20;;;;;;;9.07;100.00;100309.63;4932987;29;20444;-67
2024/04/02 07:08:23;;;;;;;1.90;0.20;;;;;;;9.23;100.00;100315.09;4931783;29;20050;-68
2024/04/02 07:11:01;;;;;;;0.63;0.10;;;;;;;9.53;100.00;100319.25;4930594;29;20040;-72
2024/04/02 07:13:27;;;;;;;1.20;0.20;;;;;;;9.84;100.00;100325.88;4928750;29;20220;-74
2024/04/02 07:15:53;;;;;;;0.25;0.10;;;;;;;10.00;100.00;100325.25;4931445;29;20087;-71
2024/04/02 07:18:19;;;;;;;4.05;0.10;;;;;;;10.11;100.00;100322.44;4929788;29;20043;-71
2024/04/02 07:20:45;;;;;;;0.88;0.10;;;;;;;10.35;100.00;100328.94;4929960;29;20031;-72
2024/04/02 07:23:11;;;;;;;0.35;0.00;;;;;;;10.42;100.00;100335.19;4933403;29;20031;-73
2024/04/02 07:25:36;;;;;;;0.40;0.10;;;;;;;10.59;100.00;100331.78;4931730;29;20402;-72
2024/04/02 07:28:02;;;;;;;0.20;0.05;;;;;;;10.77;100.00;100332.63;4924375;29;20039;-71
2024/04/02 07:30:28;;;;;;;0.50;0.00;;;;;;;10.81;100.00;100336.56;4921193;29;20060;-72
2024/04/02 07:32:54;;;;;;;2.63;0.05;;;;;;;10.77;100.00;100344.84;4927275;29;20035;-72
2024/04/02 07:35:19;;;;;;;7.38;0.00;;;;;;;10.77;100.00;100344.84;4927212;29;20032;-72
2024/04/02 07:37:45;;;;;;;2.58;0.10;;;;;;;11.12;100.00;100351.81;4920729;29;20456;-72
2024/04/02 07:40:10;;;;;;;0.10;0.00;;;;;;;11.50;100.00;100346.22;4921305;29;21549;-71
2024/04/02 07:42:36;;;;;;;0.10;0.00;;;;;;;11.92;100.00;100354.16;4922472;29;20511;-71
2024/04/02 07:45:02;;;;;;;2.70;0.05;;;;;;;12.34;100.00;100353.34;4929719;29;20036;-72
2024/04/02 07:47:27;;;;;;;1.10;0.00;;;;;;;12.43;100.00;100356.78;4910738;29;20032;-71
2024/04/02 07:49:53;;;;;;;0.28;0.00;;;;;;;12.84;100.00;100350.66;4930488;29;20111;-71
2024/04/02 07:52:18;;;;;;;0.93;0.00;;;;;;;13.42;100.00;100368.03;4924632;29;20062;-71
2024/04/02 07:54:44;;;;;;;1.45;0.00;;;;;;;14.55;100.00;100363.44;4924942;29;20526;-71
2024/04/02 07:57:09;;;;;;;0.20;0.10;;;;;;;15.54;100.00;100363.31;4925969;29;20102;-72
2024/04/02 07:59:35;;;;;;;1.00;0.00;;;;;;;15.46;100.00;100363.41;4926689;29;20078;-71
2024/04/02 08:02:00;;;;;;;1.85;0.20;;;;;;;15.17;100.00;100365.94;4927078;29;20042;-72
2024/04/02 08:04:26;;;;;;;3.25;0.10;;;;;;;14.96;100.00;100363.16;4927630;29;20046;-72
2024/04/02 08:06:52;;;;;;;0.03;0.00;;;;;;;15.06;100.00;100366.38;4928388;29;20468;-72
2024/04/02 08:09:18;;;;;;;0.98;0.00;;;;;;;15.72;100.00;100364.78;4924141;29;20051;-71
2024/04/02 08:11:43;;;;;;;0.80;0.00;;;;;;;15.76;100.00;100366.06;4916670;29;20035;-71
2024/04/02 08:14:10;;;;;;;2.03;0.00;;;;;;;14.75;100.00;100371.66;4922555;29;20471;-71
2024/04/02 08:16:35;;;;;;;0.68;0.00;;;;;;;14.49;100.00;100371.97;4923347;29;20039;-72
2024/04/02 08:19:01;;;;;;;2.70;0.08;;;;;;;14.58;100.00;100382.25;4931126;29;20028;-72
2024/04/02 08:21:26;;;;;;;2.05;0.08;;;;;;;14.12;100.00;100389.16;4925654;29;20383;-71
2024/04/02 08:23:52;;;;;;;0.65;0.10;;;;;;;13.28;100.00;100392.25;4930209;29;20055;-72
2024/04/02 08:26:19;;;;;;;0.50;0.03;;;;;;;13.37;100.00;100393.06;4926964;29;20035;-71
2024/04/02 08:28:45;;;;;;;3.60;0.00;;;;;;;13.09;100.00;100398.59;4921849;29;20690;-72
2024/04/02 08:31:10;;;;;;;1.77;0.10;;;;;;;12.46;100.00;100404.34;4928223;29;20493;-71
2024/04/02 08:33:36;;;;;;;3.22;0.10;;;;;;;12.09;100.00;100406.47;4928862;29;20045;-71
2024/04/02 08:36:01;;;;;;;1.70;0.00;;;;;;;11.99;100.00;100408.38;4929778;29;20034;-72
2024/04/02 08:38:27;;;;;;;3.75;0.10;;;;;;;11.94;100.00;100409.66;4927197;29;20038;-71
2024/04/02 08:40:54;;;;;;;2.85;0.03;;;;;;;12.04;100.00;100414.75;4928876;29;20043;-71
2024/04/02 08:43:21;;;;;;;0.90;0.10;;;;;;;12.09;100.00;100417.72;4930729;29;20102;-71
2024/04/02 08:45:47;;;;;;;0.10;0.00;;;;;;;12.17;100.00;100420.38;4929463;29;20115;-71
2024/04/02 08:48:14;;;;;;;0.52;0.00;;;;;;;12.37;100.00;100425.34;4926739;29;20055;-71
2024/04/02 08:50:40;;;;;;;3.05;0.10;;;;;;;13.24;100.00;100423.13;4925635;29;20031;-71
2024/04/02 08:53:05;;;;;;;2.92;0.20;;;;;;;13.47;100.00;100420.69;4931173;29;20039;-72
2024/04/02 08:55:33;;;;;;;2.30;0.10;;;;;;;13.48;100.00;100424.94;4931267;29;20114;-72
2024/04/02 08:58:01;;;;;;;0.85;0.03;;;;;;;13.86;100.00;100422.63;4929883;29;20587;-72
2024/04/02 09:00:27;;;;;;;0.55;0.00;;;;;;;13.15;100.00;100426.72;4929738;29;20107;-72
2024/04/02 09:02:53;;;;;;;0.82;0.00;;;;;;;12.73;100.00;100426.00;4931867;29;20154;-72
2024/04/02 09:05:19;;;;;;;1.35;0.00;;;;;;;12.71;100.00;100427.94;4926379;29;20055;-71
2024/04/02 09:07:45;;;;;;;0.10;0.00;;;;;;;13.06;100.00;100429.47;4930438;29;20440;-71
2024/04/02 09:10:11;;;;;;;0.73;0.00;;;;;;;13.20;100.00;100431.50;4927650;29;20063;-72
2024/04/02 09:12:38;;;;;;;0.10;0.00;;;;;;;13.15;100.00;100433.75;4930289;29;20648;-72
2024/04/02 09:15:03;;;;;;;0.95;0.00;;;;;;;13.22;100.00;100437.38;4930082;29;20087;-70
2024/04/02 09:17:29;;;;;;;0.10;0.00;;;;;;;13.20;100.00;100442.78;4932184;29;20443;-70
2024/04/02 09:19:54;;;;;;;0.30;0.10;;;;;;;13.16;100.00;100436.25;4931540;29;20508;-72
2024/04/02 09:22:20;;;;;;;2.58;0.00;;;;;;;12.92;100.00;100442.19;4930389;29;20032;-72
2024/04/02 09:24:45;;;;;;;0.77;0.00;;;;;;;12.98;100.00;100445.16;4935338;29;20087;-72
2024/04/02 09:27:11;;;;;;;0.17;0.00;;;;;;;13.17;100.00;100442.28;4929952;29;20368;-71
2024/04/02 09:29:37;;;;;;;0.10;0.00;;;;;;;13.37;100.00;100440.97;4931296;29;20078;-72
2024/04/02 09:32:06;;;;;;;3.22;0.10;;;;;;;13.30;100.00;100437.38;4931160;29;20122;-70
2024/04/02 09:34:33;;;;;;;2.63;0.08;;;;;;;13.21;100.00;100447.03;4931703;29;20043;-71
2024/04/02 09:37:24;;;;;;;1.90;0.00;;;;;;;12.98;100.00;100440.75;4930448;29;20036;-71
2024/04/02 09:39:51;;;;;;;2.20;0.10;;;;;;;13.09;100.00;100450.09;4903144;29;20123;-70
2024/04/02 09:42:19;;;;;;;0.65;0.03;;;;;;;12.94;100.00;100440.25;4929989;29;20090;-71
2024/04/02 09:44:45;;;;;;;0.30;0.00;;;;;;;12.89;100.00;100446.94;4932713;29;20028;-71
2024/04/02 09:47:12;;;;;;;1.35;0.10;;;;;;;12.72;100.00;100450.50;4932227;29;20087;-71
2024/04/02 09:49:39;;;;;;;0.43;0.00;;;;;;;12.67;100.00;100444.91;4934069;29;20055;-71
2024/04/02 09:52:06;;;;;;;0.20;0.00;;;;;;;12.87;100.00;100454.94;4933896;29;20098;-71
2024/04/02 09:54:35;;;;;;;0.68;0.10;;;;;;;13.00;100.00;100443.19;4931280;29;20118;-71
2024/04/02 09:57:03;;;;;;;0.28;0.00;;;;;;;12.93;100.00;100449.06;4935571;29;20098;-71
2024/04/02 09:59:29;;;;;;;1.75;0.20;;;;;;;12.86;100.00;100450.69;4931710;29;20337;-71
2024/04/02 10:01:55;;;;;;;0.30;0.03;;;;;;;12.86;100.00;100448.06;4929950;29;20047;-72
2024/04/02 10:04:22;;;;;;;0.68;0.00;;;;;;;12.93;100.00;100448.25;4930702;29;20429;-72
2024/04/02 10:06:52;;;;;;;0.47;0.05;;;;;;;13.00;100.00;100448.44;4930753;29;20051;-71
2024/04/02 10:09:17;;;;;;;1.90;0.10;;;;;;;13.19;100.00;100442.94;4930225;29;20039;-71
2024/04/02 10:11:48;;;;;;;2.67;0.10;;;;;;;13.46;100.00;100444.41;4931352;29;20035;-71
2024/04/02 10:14:15;;;;;;;1.52;0.08;;;;;;;13.83;100.00;100431.63;4932337;29;20032;-71
2024/04/02 10:16:47;;;;;;;0.90;0.30;;;;;;;14.02;100.00;100430.44;4930691;29;20403;-71
2024/04/02 10:19:19;;;;;;;0.70;0.00;;;;;;;13.94;100.00;100440.94;4928719;29;20115;-72
2024/04/02 10:21:46;;;;;;;0.65;0.00;;;;;;;13.86;100.00;100436.53;4931556;29;20031;-72
2024/04/02 10:24:15;;;;;;;1.75;0.00;;;;;;;13.65;100.00;100430.19;4925938;29;20059;-72
2024/04/02 10:26:42;;;;;;;0.68;0.00;;;;;;;13.70;100.00;100433.13;4932413;29;20035;-71
2024/04/02 10:29:08;;;;;;;0.85;0.00;;;;;;;13.59;100.00;100429.03;4926363;29;20032;-71
2024/04/02 10:31:42;;;;;;;1.55;0.10;;;;;;;13.41;100.00;100429.19;4931513;29;20023;-70
2024/04/02 10:34:10;;;;;;;0.20;0.00;;;;;;;13.47;100.00;100431.16;4931919;29;20043;-71
2024/04/02 10:36:37;;;;;;;0.75;0.00;;;;;;;13.62;100.00;100436.56;4925012;29;20047;-72
2024/04/02 10:39:03;;;;;;;2.55;0.00;;;;;;;13.64;100.00;100437.22;4928238;29;20477;-71
2024/04/02 10:41:33;;;;;;;1.55;0.00;;;;;;;13.68;100.00;100435.09;4923461;29;20106;-71
2024/04/02 10:43:59;;;;;;;4.53;0.20;;;;;;;13.84;100.00;100432.44;4930940;29;20036;-71
2024/04/02 10:46:26;;;;;;;1.58;0.10;;;;;;;14.01;100.00;100434.03;4930081;29;20042;-71
2024/04/02 10:48:55;;;;;;;4.22;0.10;;;;;;;14.25;100.00;100425.28;4929929;29;20058;-71
2024/04/02 10:51:21;;;;;;;0.30;0.00;;;;;;;14.57;100.00;100421.75;4932776;29;20039;-71
2024/04/02 10:53:46;;;;;;;1.65;0.00;;;;;;;14.69;100.00;100422.16;4933550;29;20038;-71
2024/04/02 10:56:14;;;;;;;1.67;0.10;;;;;;;14.72;100.00;100422.66;4931851;29;20067;-71
2024/04/02 10:58:40;;;;;;;0.10;0.00;;;;;;;14.85;100.00;100425.53;4933289;29;20063;-71
2024/04/02 11:01:05;;;;;;;3.45;0.10;;;;;;;14.91;100.00;100429.25;4933001;29;20051;-71
2024/04/02 11:03:31;;;;;;;0.20;0.10;;;;;;;15.04;100.00;100420.81;4932050;29;20031;-72
2024/04/02 11:05:57;;;;;;;0.85;0.10;;;;;;;15.05;100.00;100422.47;4930594;29;20444;-72
2024/04/02 11:08:22;;;;;;;4.88;0.10;;;;;;;15.23;100.00;100425.59;4931555;29;20028;-71
2024/04/02 11:10:49;;;;;;;1.42;0.10;;;;;;;15.42;100.00;100419.06;4932822;29;20039;-70
2024/04/02 11:13:26;;;;;;;7.32;0.90;;;;;;;15.40;100.00;100424.47;4932379;29;20503;-71
2024/04/02 11:15:52;;;;;;;1.73;0.30;;;;;;;15.38;100.00;100429.09;4927986;29;20086;-71
2024/04/02 11:18:22;;;;;;;1.00;0.10;;;;;;;15.32;100.00;100424.53;4930272;29;20123;-69
2024/04/02 11:20:48;;;;;;;5.25;0.17;;;;;;;15.30;100.00;100416.03;4929465;29;20031;-71